Reward, Pennsylvania
Current Conditions -  °F | °C
As of 10:53 PM on Sunday 21 Dec 2014 (Local Time) from KSEG Reporting Station
Haze Haze  
Wind Chill: 22°   Ceiling: Unl
Heat Index: 22°   Visibility: 6mi
Dew Point: 19°   Wind: 0mph
Humidity: 89%   Direction: NA
Pressure: 30.34"   Gusts: NA
Location:  40.5551°N, 77.1135°W
Report Text: KSEG 220353Z AUTO 00000KT 6SM BR CLR M06/M07 A3034 RMK AO2 SLP281 T10561072
Loading
Personal Weather Stations






























Interactive Weather Map New forecast layout! Learn more

10-Day Weather Forecast

Advertisements
Track Severe Weather on mobile